Terminal Aerodrome Forecast
Issued by NWS Omaha/Valley, NE

Home | Current Version | Previous Version | Text Only | Print | Product List | Glossary On
Versions: 1 2 3 4 5 6 7 8 9 10 11 12 13
000
FTUS43 KOAX 270520
TAFLNK
TAF
KLNK 270520Z 2706/2806 05004KT P6SM BKN250
     FM271100 03006KT P6SM -SHRA VCTS BKN050CB
      TEMPO 2712/2716 3SM TS OVC025CB
     FM272200 01010KT P6SM BKN050=

USA.gov is the U.S. government's official web portal to all federal, state and local government web resources and services.